Windsor Airport
CYQG : now visible

Airfield :











YOU CAN JOIN US ON...

 
LOGIN :

Register | Disclaimer

   EN    FR    IT 

 









Legend :    VFR   Marginal VFR   IFR   Intensive IFR   Very Intensive IFR
Visi :
Ceiling :
>= 8 km
>= 3000ft
5 to 8 km
1000 to 3000 ft
1500m to 5 km
500 to 1000 ft
800 to 1500m
200 to 500 ft
< 800m
< 200 ft
Symbols :   Thunderstorms  Fog  Heavy snow  Heavy precipitations  Wind > 20 kt






- Airport Elevation : 622 ft
- IATA code : YQG


CYQG - Windsor

CURRENT METAR :
  • 281146Z AUTO 31005KT 9SM BKN022 BKN033 03/01 A2986 RMK SLP120

EXPIRED METARs :
  • 281100Z AUTO 31005KT 9SM BKN033 02/01 A2984 RMK SLP112
  • 281000Z AUTO 33006KT 9SM OVC027 04/01 A2983 RMK SLP109
  • 280916Z AUTO 32009KT 9SM FEW020 SCT027 OVC034 04/01 A2982 RMK SLP106

TAF TAF CYQG
Valid from the 28 at 12:00 until the 29 at 12:00 UTC


281140Z 2812/2912 31008KT P6SM BKN030
TEMPO 2812/2904 BKN020
BECMG 2816/2818 25005KT
FM290400 17005KT 6SM BR SCT005 OVC012
PROB30 2904/2912 1 1/2SM -DZ BR OVC005 RMK FCST BASED ON AUTO OBS. NXT FCST BY 281800Z
CZYZ FIR / North America



MET'MAP, your aeronautical weather chart ! - Copyright ORBIFLY December 2007 - Disclaimer

ORBIFLY MET'MAP TEAM :

Programming & Development : Alexandra Zaïnal
Original concept : Baudouin d'Aumeries
Technical & hardware support : Manuel Goepfert
Assistance : Marc-Olivier Méhu




SOURCES & CREDITS :

   NOAA       Earth
Advisory